sensor_id;sensor_type;location;lat;lon;timestamp;P1;durP1;ratioP1;P2;durP2;ratioP2
15022;SDS011;19850;49.576;10.880;2023-02-15T00:01:31;66.73;;;21.63;;
15022;SDS011;19850;49.576;10.880;2023-02-15T00:05:34;27.30;;;19.03;;
15022;SDS011;19850;49.576;10.880;2023-02-15T00:09:38;25.30;;;18.90;;
15022;SDS011;19850;49.576;10.880;2023-02-15T00:13:42;23.93;;;18.40;;
15022;SDS011;19850;49.576;10.880;2023-02-15T00:17:49;32.30;;;17.73;;
15022;SDS011;19850;49.576;10.880;2023-02-15T00:21:51;26.00;;;19.20;;
15022;SDS011;19850;49.576;10.880;2023-02-15T00:26:02;24.73;;;18.63;;
15022;SDS011;19850;49.576;10.880;2023-02-15T00:30:08;27.70;;;18.17;;
15022;SDS011;19850;49.576;10.880;2023-02-15T00:34:12;29.90;;;16.27;;
15022;SDS011;19850;49.576;10.880;2023-02-15T00:38:16;37.30;;;16.77;;
15022;SDS011;19850;49.576;10.880;2023-02-15T00:42:19;28.17;;;16.30;;
15022;SDS011;19850;49.576;10.880;2023-02-15T00:46:23;61.53;;;17.20;;
15022;SDS011;19850;49.576;10.880;2023-02-15T00:50:25;34.13;;;17.97;;
15022;SDS011;19850;49.576;10.880;2023-02-15T00:54:28;27.67;;;16.50;;
15022;SDS011;19850;49.576;10.880;2023-02-15T00:58:31;22.53;;;16.50;;
15022;SDS011;19850;49.576;10.880;2023-02-15T01:02:35;33.50;;;17.17;;
15022;SDS011;19850;49.576;10.880;2023-02-15T01:06:37;82.90;;;18.13;;
15022;SDS011;19850;49.576;10.880;2023-02-15T01:10:40;20.70;;;15.70;;
15022;SDS011;19850;49.576;10.880;2023-02-15T01:14:45;32.97;;;16.83;;
15022;SDS011;19850;49.576;10.880;2023-02-15T01:18:49;17.77;;;15.13;;
15022;SDS011;19850;49.576;10.880;2023-02-15T01:22:52;40.57;;;16.83;;
15022;SDS011;19850;49.576;10.880;2023-02-15T01:26:55;18.90;;;15.00;;
15022;SDS011;19850;49.576;10.880;2023-02-15T01:30:58;23.77;;;16.67;;
15022;SDS011;19850;49.576;10.880;2023-02-15T01:35:02;43.20;;;16.67;;
15022;SDS011;19850;49.576;10.880;2023-02-15T01:39:05;38.63;;;16.13;;
15022;SDS011;19850;49.576;10.880;2023-02-15T01:43:11;41.73;;;17.20;;
15022;SDS011;19850;49.576;10.880;2023-02-15T01:47:14;34.20;;;16.53;;
15022;SDS011;19850;49.576;10.880;2023-02-15T01:51:21;24.87;;;16.23;;
15022;SDS011;19850;49.576;10.880;2023-02-15T01:55:27;24.47;;;15.43;;
15022;SDS011;19850;49.576;10.880;2023-02-15T01:59:33;53.90;;;15.73;;
15022;SDS011;19850;49.576;10.880;2023-02-15T02:03:38;22.33;;;15.57;;
15022;SDS011;19850;49.576;10.880;2023-02-15T02:07:48;22.17;;;15.50;;
15022;SDS011;19850;49.576;10.880;2023-02-15T02:11:53;21.50;;;16.23;;
15022;SDS011;19850;49.576;10.880;2023-02-15T02:15:58;19.67;;;16.10;;
15022;SDS011;19850;49.576;10.880;2023-02-15T02:24:54;19.57;;;14.47;;
15022;SDS011;19850;49.576;10.880;2023-02-15T02:29:28;30.57;;;14.37;;
15022;SDS011;19850;49.576;10.880;2023-02-15T02:33:53;16.93;;;14.73;;
15022;SDS011;19850;49.576;10.880;2023-02-15T02:38:03;60.63;;;15.67;;
15022;SDS011;19850;49.576;10.880;2023-02-15T02:42:12;28.13;;;15.33;;
15022;SDS011;19850;49.576;10.880;2023-02-15T02:46:20;27.60;;;16.00;;
15022;SDS011;19850;49.576;10.880;2023-02-15T02:50:26;21.63;;;16.13;;
15022;SDS011;19850;49.576;10.880;2023-02-15T02:54:30;16.50;;;14.27;;
15022;SDS011;19850;49.576;10.880;2023-02-15T02:58:34;23.43;;;14.10;;
15022;SDS011;19850;49.576;10.880;2023-02-15T03:02:41;28.87;;;16.13;;
15022;SDS011;19850;49.576;10.880;2023-02-15T03:06:49;26.40;;;15.67;;
15022;SDS011;19850;49.576;10.880;2023-02-15T03:10:53;18.43;;;15.03;;
15022;SDS011;19850;49.576;10.880;2023-02-15T03:14:59;31.87;;;16.10;;
15022;SDS011;19850;49.576;10.880;2023-02-15T03:19:06;25.63;;;16.17;;
15022;SDS011;19850;49.576;10.880;2023-02-15T03:23:16;23.27;;;15.60;;
15022;SDS011;19850;49.576;10.880;2023-02-15T03:27:21;17.20;;;15.27;;
15022;SDS011;19850;49.576;10.880;2023-02-15T03:31:26;16.67;;;14.63;;
15022;SDS011;19850;49.576;10.880;2023-02-15T03:35:32;18.40;;;14.97;;
15022;SDS011;19850;49.576;10.880;2023-02-15T03:39:42;20.73;;;15.70;;
15022;SDS011;19850;49.576;10.880;2023-02-15T03:43:48;17.60;;;15.03;;
15022;SDS011;19850;49.576;10.880;2023-02-15T03:47:54;16.23;;;14.20;;
15022;SDS011;19850;49.576;10.880;2023-02-15T03:51:58;17.73;;;15.17;;
15022;SDS011;19850;49.576;10.880;2023-02-15T03:56:04;19.77;;;15.87;;
15022;SDS011;19850;49.576;10.880;2023-02-15T04:00:09;18.60;;;15.43;;
15022;SDS011;19850;49.576;10.880;2023-02-15T04:04:33;18.17;;;15.67;;
15022;SDS011;19850;49.576;10.880;2023-02-15T04:08:36;18.80;;;15.23;;
15022;SDS011;19850;49.576;10.880;2023-02-15T04:12:58;15.50;;;13.23;;
15022;SDS011;19850;49.576;10.880;2023-02-15T04:17:02;18.17;;;14.47;;
15022;SDS011;19850;49.576;10.880;2023-02-15T04:21:07;25.47;;;15.43;;
15022;SDS011;19850;49.576;10.880;2023-02-15T04:25:27;16.57;;;13.73;;
15022;SDS011;19850;49.576;10.880;2023-02-15T04:29:32;25.70;;;14.17;;
15022;SDS011;19850;49.576;10.880;2023-02-15T04:33:34;18.93;;;15.53;;
15022;SDS011;19850;49.576;10.880;2023-02-15T04:37:37;17.43;;;15.20;;
15022;SDS011;19850;49.576;10.880;2023-02-15T04:41:40;18.93;;;13.53;;
15022;SDS011;19850;49.576;10.880;2023-02-15T04:45:48;56.40;;;14.23;;
15022;SDS011;19850;49.576;10.880;2023-02-15T04:49:51;15.27;;;12.80;;
15022;SDS011;19850;49.576;10.880;2023-02-15T04:53:56;17.60;;;12.53;;
15022;SDS011;19850;49.576;10.880;2023-02-15T04:57:59;14.00;;;12.40;;
15022;SDS011;19850;49.576;10.880;2023-02-15T05:02:03;13.73;;;11.83;;
15022;SDS011;19850;49.576;10.880;2023-02-15T05:06:07;14.20;;;12.43;;
15022;SDS011;19850;49.576;10.880;2023-02-15T05:10:09;13.30;;;11.23;;
15022;SDS011;19850;49.576;10.880;2023-02-15T05:14:12;14.67;;;11.87;;
15022;SDS011;19850;49.576;10.880;2023-02-15T05:18:17;23.30;;;13.53;;
15022;SDS011;19850;49.576;10.880;2023-02-15T05:22:20;19.63;;;12.97;;
15022;SDS011;19850;49.576;10.880;2023-02-15T05:26:23;15.47;;;11.80;;
15022;SDS011;19850;49.576;10.880;2023-02-15T05:30:44;18.10;;;12.80;;
15022;SDS011;19850;49.576;10.880;2023-02-15T05:34:48;19.27;;;12.73;;
15022;SDS011;19850;49.576;10.880;2023-02-15T05:38:51;20.27;;;13.40;;
15022;SDS011;19850;49.576;10.880;2023-02-15T05:42:54;14.10;;;11.77;;
15022;SDS011;19850;49.576;10.880;2023-02-15T05:46:58;25.67;;;13.77;;
15022;SDS011;19850;49.576;10.880;2023-02-15T05:51:03;13.73;;;11.53;;
15022;SDS011;19850;49.576;10.880;2023-02-15T05:55:07;14.03;;;11.90;;
15022;SDS011;19850;49.576;10.880;2023-02-15T05:59:10;15.17;;;12.57;;
15022;SDS011;19850;49.576;10.880;2023-02-15T06:03:13;21.37;;;12.40;;
15022;SDS011;19850;49.576;10.880;2023-02-15T06:07:18;19.70;;;13.47;;
15022;SDS011;19850;49.576;10.880;2023-02-15T06:11:21;13.90;;;11.83;;
15022;SDS011;19850;49.576;10.880;2023-02-15T06:15:24;13.57;;;11.57;;
15022;SDS011;19850;49.576;10.880;2023-02-15T06:19:27;15.70;;;12.60;;
15022;SDS011;19850;49.576;10.880;2023-02-15T06:23:31;18.97;;;13.70;;
15022;SDS011;19850;49.576;10.880;2023-02-15T06:27:33;14.33;;;11.90;;
15022;SDS011;19850;49.576;10.880;2023-02-15T06:31:36;20.43;;;12.17;;
15022;SDS011;19850;49.576;10.880;2023-02-15T06:35:39;30.00;;;14.20;;
15022;SDS011;19850;49.576;10.880;2023-02-15T06:39:44;21.53;;;16.17;;
15022;SDS011;19850;49.576;10.880;2023-02-15T06:43:47;18.33;;;14.20;;
15022;SDS011;19850;49.576;10.880;2023-02-15T06:47:49;18.07;;;14.57;;
15022;SDS011;19850;49.576;10.880;2023-02-15T06:51:52;19.20;;;14.83;;
15022;SDS011;19850;49.576;10.880;2023-02-15T06:56:01;18.20;;;14.50;;
15022;SDS011;19850;49.576;10.880;2023-02-15T07:00:07;20.03;;;14.70;;
15022;SDS011;19850;49.576;10.880;2023-02-15T07:04:11;29.00;;;15.80;;
15022;SDS011;19850;49.576;10.880;2023-02-15T07:08:14;17.37;;;14.40;;
15022;SDS011;19850;49.576;10.880;2023-02-15T07:12:18;17.70;;;14.87;;
15022;SDS011;19850;49.576;10.880;2023-02-15T07:16:38;19.63;;;15.80;;
15022;SDS011;19850;49.576;10.880;2023-02-15T07:20:41;22.23;;;15.13;;
15022;SDS011;19850;49.576;10.880;2023-02-15T07:24:44;19.43;;;15.17;;
15022;SDS011;19850;49.576;10.880;2023-02-15T07:28:48;18.97;;;15.10;;
15022;SDS011;19850;49.576;10.880;2023-02-15T07:32:50;32.67;;;16.53;;
15022;SDS011;19850;49.576;10.880;2023-02-15T07:37:14;21.47;;;16.13;;
15022;SDS011;19850;49.576;10.880;2023-02-15T07:41:17;18.47;;;14.53;;
15022;SDS011;19850;49.576;10.880;2023-02-15T07:45:21;18.07;;;14.57;;
15022;SDS011;19850;49.576;10.880;2023-02-15T07:49:24;17.33;;;14.50;;
15022;SDS011;19850;49.576;10.880;2023-02-15T07:53:27;26.23;;;14.93;;
15022;SDS011;19850;49.576;10.880;2023-02-15T07:57:30;37.20;;;16.80;;
15022;SDS011;19850;49.576;10.880;2023-02-15T08:01:35;17.17;;;14.13;;
15022;SDS011;19850;49.576;10.880;2023-02-15T08:05:39;17.97;;;15.20;;
15022;SDS011;19850;49.576;10.880;2023-02-15T08:09:42;22.20;;;15.63;;
15022;SDS011;19850;49.576;10.880;2023-02-15T08:13:45;24.53;;;16.10;;
15022;SDS011;19850;49.576;10.880;2023-02-15T08:17:56;18.27;;;14.40;;
15022;SDS011;19850;49.576;10.880;2023-02-15T08:21:59;18.17;;;15.43;;
15022;SDS011;19850;49.576;10.880;2023-02-15T08:26:03;19.80;;;15.30;;
15022;SDS011;19850;49.576;10.880;2023-02-15T08:30:07;20.20;;;15.13;;
15022;SDS011;19850;49.576;10.880;2023-02-15T08:34:14;42.73;;;33.87;;
15022;SDS011;19850;49.576;10.880;2023-02-15T08:38:19;29.57;;;26.03;;
15022;SDS011;19850;49.576;10.880;2023-02-15T08:42:21;19.43;;;14.77;;
15022;SDS011;19850;49.576;10.880;2023-02-15T08:46:25;18.80;;;15.17;;
15022;SDS011;19850;49.576;10.880;2023-02-15T08:50:30;18.77;;;14.87;;
15022;SDS011;19850;49.576;10.880;2023-02-15T08:54:33;18.20;;;15.20;;
15022;SDS011;19850;49.576;10.880;2023-02-15T08:58:36;20.27;;;16.00;;
15022;SDS011;19850;49.576;10.880;2023-02-15T09:02:39;18.67;;;14.90;;
15022;SDS011;19850;49.576;10.880;2023-02-15T09:06:43;19.47;;;15.67;;
15022;SDS011;19850;49.576;10.880;2023-02-15T09:10:49;20.60;;;16.30;;
15022;SDS011;19850;49.576;10.880;2023-02-15T09:14:52;22.97;;;17.47;;
15022;SDS011;19850;49.576;10.880;2023-02-15T09:18:54;21.97;;;16.87;;
15022;SDS011;19850;49.576;10.880;2023-02-15T09:23:00;22.43;;;15.63;;
15022;SDS011;19850;49.576;10.880;2023-02-15T09:27:02;15.77;;;13.20;;
15022;SDS011;19850;49.576;10.880;2023-02-15T09:31:09;19.33;;;16.17;;
15022;SDS011;19850;49.576;10.880;2023-02-15T09:35:12;19.47;;;16.43;;
15022;SDS011;19850;49.576;10.880;2023-02-15T09:39:17;19.13;;;14.97;;
15022;SDS011;19850;49.576;10.880;2023-02-15T09:43:24;21.37;;;16.77;;
15022;SDS011;19850;49.576;10.880;2023-02-15T09:47:40;20.40;;;16.70;;
15022;SDS011;19850;49.576;10.880;2023-02-15T09:51:55;23.00;;;18.33;;
15022;SDS011;19850;49.576;10.880;2023-02-15T09:56:06;20.57;;;16.00;;
15022;SDS011;19850;49.576;10.880;2023-02-15T10:00:15;22.13;;;16.47;;
15022;SDS011;19850;49.576;10.880;2023-02-15T10:04:27;21.60;;;16.37;;
15022;SDS011;19850;49.576;10.880;2023-02-15T10:08:43;20.47;;;16.13;;
15022;SDS011;19850;49.576;10.880;2023-02-15T10:13:15;17.97;;;14.83;;
15022;SDS011;19850;49.576;10.880;2023-02-15T10:17:34;20.90;;;16.23;;
15022;SDS011;19850;49.576;10.880;2023-02-15T10:21:48;18.37;;;15.47;;
15022;SDS011;19850;49.576;10.880;2023-02-15T10:25:58;17.13;;;14.00;;
15022;SDS011;19850;49.576;10.880;2023-02-15T10:30:08;18.87;;;15.23;;
15022;SDS011;19850;49.576;10.880;2023-02-15T10:34:15;20.13;;;15.50;;
15022;SDS011;19850;49.576;10.880;2023-02-15T10:38:20;19.98;;;17.95;;
15022;SDS011;19850;49.576;10.880;2023-02-15T10:42:28;22.60;;;17.70;;
15022;SDS011;19850;49.576;10.880;2023-02-15T10:46:39;18.37;;;15.10;;
15022;SDS011;19850;49.576;10.880;2023-02-15T10:50:59;19.23;;;16.00;;
15022;SDS011;19850;49.576;10.880;2023-02-15T10:55:06;19.73;;;15.33;;
15022;SDS011;19850;49.576;10.880;2023-02-15T10:59:22;18.23;;;14.77;;
15022;SDS011;19850;49.576;10.880;2023-02-15T11:03:38;19.57;;;15.37;;
15022;SDS011;19850;49.576;10.880;2023-02-15T11:07:53;20.23;;;15.83;;
15022;SDS011;19850;49.576;10.880;2023-02-15T11:11:58;19.97;;;15.23;;
15022;SDS011;19850;49.576;10.880;2023-02-15T11:16:02;19.53;;;14.80;;
15022;SDS011;19850;49.576;10.880;2023-02-15T11:20:14;19.17;;;14.37;;
15022;SDS011;19850;49.576;10.880;2023-02-15T11:24:19;18.03;;;14.90;;
15022;SDS011;19850;49.576;10.880;2023-02-15T11:28:24;19.67;;;15.33;;
15022;SDS011;19850;49.576;10.880;2023-02-15T11:32:33;18.07;;;14.97;;
15022;SDS011;19850;49.576;10.880;2023-02-15T11:36:38;18.87;;;14.77;;
15022;SDS011;19850;49.576;10.880;2023-02-15T11:40:44;18.23;;;13.13;;
15022;SDS011;19850;49.576;10.880;2023-02-15T11:44:52;16.67;;;13.73;;
15022;SDS011;19850;49.576;10.880;2023-02-15T11:48:59;18.00;;;14.20;;
15022;SDS011;19850;49.576;10.880;2023-02-15T11:53:05;16.70;;;14.30;;
15022;SDS011;19850;49.576;10.880;2023-02-15T11:57:13;16.53;;;13.60;;
15022;SDS011;19850;49.576;10.880;2023-02-15T12:01:20;18.57;;;14.30;;
15022;SDS011;19850;49.576;10.880;2023-02-15T12:05:25;17.77;;;14.47;;
15022;SDS011;19850;49.576;10.880;2023-02-15T12:09:31;20.93;;;15.37;;
15022;SDS011;19850;49.576;10.880;2023-02-15T12:13:36;23.30;;;16.13;;
15022;SDS011;19850;49.576;10.880;2023-02-15T12:17:56;19.17;;;15.20;;
15022;SDS011;19850;49.576;10.880;2023-02-15T12:21:59;18.93;;;14.77;;
15022;SDS011;19850;49.576;10.880;2023-02-15T12:26:05;19.07;;;15.17;;
15022;SDS011;19850;49.576;10.880;2023-02-15T12:30:14;18.17;;;14.73;;
15022;SDS011;19850;49.576;10.880;2023-02-15T12:34:21;19.47;;;15.10;;
15022;SDS011;19850;49.576;10.880;2023-02-15T12:38:25;18.67;;;15.20;;
15022;SDS011;19850;49.576;10.880;2023-02-15T12:42:41;19.87;;;15.23;;
15022;SDS011;19850;49.576;10.880;2023-02-15T12:46:55;20.63;;;16.50;;
15022;SDS011;19850;49.576;10.880;2023-02-15T12:51:06;19.37;;;16.13;;
15022;SDS011;19850;49.576;10.880;2023-02-15T12:55:11;20.90;;;15.47;;
15022;SDS011;19850;49.576;10.880;2023-02-15T12:59:23;19.80;;;16.20;;
15022;SDS011;19850;49.576;10.880;2023-02-15T13:03:26;22.67;;;16.43;;
15022;SDS011;19850;49.576;10.880;2023-02-15T13:07:29;21.90;;;16.97;;
15022;SDS011;19850;49.576;10.880;2023-02-15T13:11:33;22.63;;;16.90;;
15022;SDS011;19850;49.576;10.880;2023-02-15T13:15:40;22.67;;;17.13;;
15022;SDS011;19850;49.576;10.880;2023-02-15T13:19:44;21.67;;;16.53;;
15022;SDS011;19850;49.576;10.880;2023-02-15T13:23:50;21.07;;;16.97;;
15022;SDS011;19850;49.576;10.880;2023-02-15T13:28:00;23.27;;;18.23;;
15022;SDS011;19850;49.576;10.880;2023-02-15T13:32:06;22.40;;;16.90;;
15022;SDS011;19850;49.576;10.880;2023-02-15T13:36:14;22.00;;;16.27;;
15022;SDS011;19850;49.576;10.880;2023-02-15T13:40:22;22.20;;;17.27;;
15022;SDS011;19850;49.576;10.880;2023-02-15T13:44:32;23.40;;;16.97;;
15022;SDS011;19850;49.576;10.880;2023-02-15T13:48:49;21.43;;;17.10;;
15022;SDS011;19850;49.576;10.880;2023-02-15T13:52:57;25.03;;;18.23;;
15022;SDS011;19850;49.576;10.880;2023-02-15T13:57:18;23.30;;;17.03;;
15022;SDS011;19850;49.576;10.880;2023-02-15T14:01:31;23.27;;;17.83;;
15022;SDS011;19850;49.576;10.880;2023-02-15T14:05:50;22.77;;;18.77;;
15022;SDS011;19850;49.576;10.880;2023-02-15T14:10:02;20.33;;;17.10;;
15022;SDS011;19850;49.576;10.880;2023-02-15T14:18:43;26.70;;;18.40;;
15022;SDS011;19850;49.576;10.880;2023-02-15T14:22:52;24.80;;;19.40;;
15022;SDS011;19850;49.576;10.880;2023-02-15T14:27:00;25.97;;;19.97;;
15022;SDS011;19850;49.576;10.880;2023-02-15T14:31:09;24.63;;;18.57;;
15022;SDS011;19850;49.576;10.880;2023-02-15T14:35:14;26.33;;;18.93;;
15022;SDS011;19850;49.576;10.880;2023-02-15T14:39:24;26.13;;;19.37;;
15022;SDS011;19850;49.576;10.880;2023-02-15T14:43:55;23.50;;;18.37;;
15022;SDS011;19850;49.576;10.880;2023-02-15T14:48:04;24.87;;;18.87;;
15022;SDS011;19850;49.576;10.880;2023-02-15T14:52:11;24.10;;;19.17;;
15022;SDS011;19850;49.576;10.880;2023-02-15T15:00:33;25.17;;;19.63;;
15022;SDS011;19850;49.576;10.880;2023-02-15T15:04:41;20.87;;;18.13;;
15022;SDS011;19850;49.576;10.880;2023-02-15T15:08:45;22.37;;;17.90;;
15022;SDS011;19850;49.576;10.880;2023-02-15T15:12:49;22.80;;;18.30;;
15022;SDS011;19850;49.576;10.880;2023-02-15T15:16:53;24.27;;;18.37;;
15022;SDS011;19850;49.576;10.880;2023-02-15T15:20:56;22.93;;;19.10;;
15022;SDS011;19850;49.576;10.880;2023-02-15T15:24:59;21.87;;;18.13;;
15022;SDS011;19850;49.576;10.880;2023-02-15T15:29:06;22.10;;;18.23;;
15022;SDS011;19850;49.576;10.880;2023-02-15T15:33:12;24.30;;;19.23;;
15022;SDS011;19850;49.576;10.880;2023-02-15T15:41:55;22.07;;;19.03;;
15022;SDS011;19850;49.576;10.880;2023-02-15T15:46:07;24.27;;;19.33;;
15022;SDS011;19850;49.576;10.880;2023-02-15T15:50:28;22.47;;;19.43;;
15022;SDS011;19850;49.576;10.880;2023-02-15T15:54:31;24.73;;;19.63;;
15022;SDS011;19850;49.576;10.880;2023-02-15T15:58:36;24.73;;;20.73;;
15022;SDS011;19850;49.576;10.880;2023-02-15T16:02:51;26.67;;;21.87;;
15022;SDS011;19850;49.576;10.880;2023-02-15T16:06:54;24.57;;;20.73;;
15022;SDS011;19850;49.576;10.880;2023-02-15T16:10:58;22.67;;;19.43;;
15022;SDS011;19850;49.576;10.880;2023-02-15T16:15:02;22.10;;;17.90;;
15022;SDS011;19850;49.576;10.880;2023-02-15T16:19:15;24.73;;;19.23;;
15022;SDS011;19850;49.576;10.880;2023-02-15T16:23:26;22.67;;;18.93;;
15022;SDS011;19850;49.576;10.880;2023-02-15T16:27:51;24.13;;;19.67;;
15022;SDS011;19850;49.576;10.880;2023-02-15T16:31:58;24.90;;;19.53;;
15022;SDS011;19850;49.576;10.880;2023-02-15T16:36:04;24.50;;;19.30;;
15022;SDS011;19850;49.576;10.880;2023-02-15T16:40:13;29.17;;;19.97;;
15022;SDS011;19850;49.576;10.880;2023-02-15T16:44:33;23.17;;;19.00;;
15022;SDS011;19850;49.576;10.880;2023-02-15T16:48:39;27.90;;;22.07;;
15022;SDS011;19850;49.576;10.880;2023-02-15T16:52:44;26.63;;;20.57;;
15022;SDS011;19850;49.576;10.880;2023-02-15T16:56:47;26.60;;;21.73;;
15022;SDS011;19850;49.576;10.880;2023-02-15T17:00:50;24.33;;;21.10;;
15022;SDS011;19850;49.576;10.880;2023-02-15T17:05:01;30.70;;;24.77;;
15022;SDS011;19850;49.576;10.880;2023-02-15T17:09:15;37.50;;;30.40;;
15022;SDS011;19850;49.576;10.880;2023-02-15T17:13:20;39.57;;;30.73;;
15022;SDS011;19850;49.576;10.880;2023-02-15T17:17:23;32.33;;;25.73;;
15022;SDS011;19850;49.576;10.880;2023-02-15T17:21:28;35.10;;;26.10;;
15022;SDS011;19850;49.576;10.880;2023-02-15T17:25:37;32.30;;;28.80;;
15022;SDS011;19850;49.576;10.880;2023-02-15T17:29:43;27.70;;;22.30;;
15022;SDS011;19850;49.576;10.880;2023-02-15T17:33:50;30.90;;;22.30;;
15022;SDS011;19850;49.576;10.880;2023-02-15T17:38:03;27.60;;;21.80;;
15022;SDS011;19850;49.576;10.880;2023-02-15T17:42:09;28.27;;;23.37;;
15022;SDS011;19850;49.576;10.880;2023-02-15T17:46:11;28.60;;;22.97;;
15022;SDS011;19850;49.576;10.880;2023-02-15T17:54:20;29.87;;;24.37;;
15022;SDS011;19850;49.576;10.880;2023-02-15T17:58:42;31.53;;;25.63;;
15022;SDS011;19850;49.576;10.880;2023-02-15T18:02:45;34.00;;;27.27;;
15022;SDS011;19850;49.576;10.880;2023-02-15T18:07:07;37.73;;;28.83;;
15022;SDS011;19850;49.576;10.880;2023-02-15T18:11:28;44.93;;;32.97;;
15022;SDS011;19850;49.576;10.880;2023-02-15T18:15:41;53.27;;;42.10;;
15022;SDS011;19850;49.576;10.880;2023-02-15T18:19:44;48.73;;;38.57;;
15022;SDS011;19850;49.576;10.880;2023-02-15T18:23:48;45.17;;;34.77;;
15022;SDS011;19850;49.576;10.880;2023-02-15T18:27:51;45.43;;;36.50;;
15022;SDS011;19850;49.576;10.880;2023-02-15T18:31:57;33.40;;;26.27;;
15022;SDS011;19850;49.576;10.880;2023-02-15T18:36:01;35.37;;;25.90;;
15022;SDS011;19850;49.576;10.880;2023-02-15T18:40:09;33.13;;;24.73;;
15022;SDS011;19850;49.576;10.880;2023-02-15T18:44:18;36.30;;;25.97;;
15022;SDS011;19850;49.576;10.880;2023-02-15T18:48:22;34.80;;;27.70;;
15022;SDS011;19850;49.576;10.880;2023-02-15T18:52:26;35.97;;;26.30;;
15022;SDS011;19850;49.576;10.880;2023-02-15T18:56:31;34.57;;;26.00;;
15022;SDS011;19850;49.576;10.880;2023-02-15T19:00:34;36.30;;;26.40;;
15022;SDS011;19850;49.576;10.880;2023-02-15T19:04:38;34.23;;;25.87;;
15022;SDS011;19850;49.576;10.880;2023-02-15T19:08:42;34.10;;;25.73;;
15022;SDS011;19850;49.576;10.880;2023-02-15T19:12:46;38.63;;;26.93;;
15022;SDS011;19850;49.576;10.880;2023-02-15T19:16:49;35.33;;;27.30;;
15022;SDS011;19850;49.576;10.880;2023-02-15T19:20:54;28.30;;;22.70;;
15022;SDS011;19850;49.576;10.880;2023-02-15T19:24:58;34.30;;;26.10;;
15022;SDS011;19850;49.576;10.880;2023-02-15T19:29:02;37.57;;;28.13;;
15022;SDS011;19850;49.576;10.880;2023-02-15T19:33:08;37.57;;;27.07;;
15022;SDS011;19850;49.576;10.880;2023-02-15T19:37:21;41.03;;;28.03;;
15022;SDS011;19850;49.576;10.880;2023-02-15T19:41:26;54.40;;;30.67;;
15022;SDS011;19850;49.576;10.880;2023-02-15T19:45:32;47.70;;;30.10;;
15022;SDS011;19850;49.576;10.880;2023-02-15T19:49:35;57.90;;;31.47;;
15022;SDS011;19850;49.576;10.880;2023-02-15T19:53:39;61.97;;;28.73;;
15022;SDS011;19850;49.576;10.880;2023-02-15T19:57:42;44.70;;;30.33;;
15022;SDS011;19850;49.576;10.880;2023-02-15T20:01:45;46.13;;;28.20;;
15022;SDS011;19850;49.576;10.880;2023-02-15T20:05:48;36.53;;;26.77;;
15022;SDS011;19850;49.576;10.880;2023-02-15T20:09:52;39.17;;;28.50;;
15022;SDS011;19850;49.576;10.880;2023-02-15T20:13:55;45.10;;;28.40;;
15022;SDS011;19850;49.576;10.880;2023-02-15T20:17:58;50.63;;;32.45;;
15022;SDS011;19850;49.576;10.880;2023-02-15T20:22:03;52.13;;;29.60;;
15022;SDS011;19850;49.576;10.880;2023-02-15T20:26:11;43.60;;;29.87;;
15022;SDS011;19850;49.576;10.880;2023-02-15T20:30:16;42.23;;;28.87;;
15022;SDS011;19850;49.576;10.880;2023-02-15T20:34:19;60.17;;;28.30;;
15022;SDS011;19850;49.576;10.880;2023-02-15T20:38:23;88.10;;;29.63;;
15022;SDS011;19850;49.576;10.880;2023-02-15T20:42:29;85.90;;;29.00;;
15022;SDS011;19850;49.576;10.880;2023-02-15T20:46:32;49.92;;;33.13;;
15022;SDS011;19850;49.576;10.880;2023-02-15T20:50:35;52.60;;;27.60;;
15022;SDS011;19850;49.576;10.880;2023-02-15T20:54:39;59.27;;;29.03;;
15022;SDS011;19850;49.576;10.880;2023-02-15T20:58:44;41.00;;;26.97;;
15022;SDS011;19850;49.576;10.880;2023-02-15T21:02:48;47.97;;;27.93;;
15022;SDS011;19850;49.576;10.880;2023-02-15T21:06:51;47.47;;;30.80;;
15022;SDS011;19850;49.576;10.880;2023-02-15T21:10:54;48.10;;;30.10;;
15022;SDS011;19850;49.576;10.880;2023-02-15T21:15:06;67.43;;;30.30;;
15022;SDS011;19850;49.576;10.880;2023-02-15T21:19:29;73.77;;;30.20;;
15022;SDS011;19850;49.576;10.880;2023-02-15T21:23:32;75.63;;;29.07;;
15022;SDS011;19850;49.576;10.880;2023-02-15T21:27:36;51.40;;;28.60;;
15022;SDS011;19850;49.576;10.880;2023-02-15T21:31:40;41.57;;;27.40;;
15022;SDS011;19850;49.576;10.880;2023-02-15T21:35:45;44.77;;;27.57;;
15022;SDS011;19850;49.576;10.880;2023-02-15T21:39:49;43.40;;;28.77;;
15022;SDS011;19850;49.576;10.880;2023-02-15T21:43:51;136.07;;;29.93;;
15022;SDS011;19850;49.576;10.880;2023-02-15T21:48:13;32.63;;;24.40;;
15022;SDS011;19850;49.576;10.880;2023-02-15T21:52:17;33.37;;;24.60;;
15022;SDS011;19850;49.576;10.880;2023-02-15T21:56:23;56.53;;;25.80;;
15022;SDS011;19850;49.576;10.880;2023-02-15T22:00:26;41.80;;;25.70;;
15022;SDS011;19850;49.576;10.880;2023-02-15T22:04:34;34.40;;;24.90;;
15022;SDS011;19850;49.576;10.880;2023-02-15T22:08:37;41.40;;;24.87;;
15022;SDS011;19850;49.576;10.880;2023-02-15T22:12:40;41.57;;;24.60;;
15022;SDS011;19850;49.576;10.880;2023-02-15T22:16:43;33.70;;;24.73;;
15022;SDS011;19850;49.576;10.880;2023-02-15T22:20:47;30.53;;;23.80;;
15022;SDS011;19850;49.576;10.880;2023-02-15T22:24:52;29.93;;;22.70;;
15022;SDS011;19850;49.576;10.880;2023-02-15T22:28:55;41.70;;;22.40;;
15022;SDS011;19850;49.576;10.880;2023-02-15T22:32:58;29.07;;;22.07;;
15022;SDS011;19850;49.576;10.880;2023-02-15T22:37:03;35.73;;;23.73;;
15022;SDS011;19850;49.576;10.880;2023-02-15T22:41:06;31.37;;;22.40;;
15022;SDS011;19850;49.576;10.880;2023-02-15T22:45:12;30.93;;;23.07;;
15022;SDS011;19850;49.576;10.880;2023-02-15T22:49:18;27.93;;;21.60;;
15022;SDS011;19850;49.576;10.880;2023-02-15T22:53:22;29.43;;;23.50;;
15022;SDS011;19850;49.576;10.880;2023-02-15T22:57:27;26.50;;;21.07;;
15022;SDS011;19850;49.576;10.880;2023-02-15T23:01:31;28.87;;;22.67;;
15022;SDS011;19850;49.576;10.880;2023-02-15T23:05:35;31.57;;;23.80;;
15022;SDS011;19850;49.576;10.880;2023-02-15T23:09:40;27.53;;;21.00;;
15022;SDS011;19850;49.576;10.880;2023-02-15T23:13:43;33.17;;;23.13;;
15022;SDS011;19850;49.576;10.880;2023-02-15T23:17:46;35.30;;;24.57;;
15022;SDS011;19850;49.576;10.880;2023-02-15T23:21:49;30.77;;;23.07;;
15022;SDS011;19850;49.576;10.880;2023-02-15T23:25:53;31.23;;;24.20;;
15022;SDS011;19850;49.576;10.880;2023-02-15T23:29:56;29.77;;;22.50;;
15022;SDS011;19850;49.576;10.880;2023-02-15T23:34:00;27.10;;;21.77;;
15022;SDS011;19850;49.576;10.880;2023-02-15T23:38:05;28.00;;;21.87;;
15022;SDS011;19850;49.576;10.880;2023-02-15T23:42:21;28.77;;;21.47;;
15022;SDS011;19850;49.576;10.880;2023-02-15T23:46:28;28.37;;;22.20;;
15022;SDS011;19850;49.576;10.880;2023-02-15T23:50:31;28.30;;;21.90;;
15022;SDS011;19850;49.576;10.880;2023-02-15T23:54:34;30.93;;;22.80;;
15022;SDS011;19850;49.576;10.880;2023-02-15T23:58:39;31.10;;;24.20;;
